Time;durP1;ratioP1;P1;durP2;ratioP2;P2;SDS_P1;SDS_P2;PMS_P1;PMS_P2;Temp;Humidity;BMP_temperature;BMP_pressure;BME280_temperature;BME280_humidity;BME280_pressure;Samples;Min_cycle;Max_cycle;Signal;HPM_P1;HPM_P2
2022/07/26 00:01:19;;;;;;;;;;;;;;;;;;4890362;29;20765;-61
2022/07/26 00:03:47;;;;;;;;;;;;;;;;;;4888819;29;19919;-61
2022/07/26 00:06:15;;;;;;;;;;;;;;;;;;4887816;29;19962;-61
2022/07/26 00:08:43;;;;;;;;;;;;;;;;;;4891236;29;19930;-61
2022/07/26 00:11:10;;;;;;;;;;;;;;;;;;4888948;29;20072;-61
2022/07/26 00:13:35;;;;;;;;;;;;;;;;;;4883125;29;20598;-61
2022/07/26 00:16:00;;;;;;;;;;;;;;;;;;4902967;29;19919;-62
2022/07/26 00:18:29;;;;;;;;;;;;;;;;;;4890636;29;19927;-60
2022/07/26 00:20:56;;;;;;;;;;;;;;;;;;4890931;29;19923;-59
2022/07/26 00:23:24;;;;;;;;;;;;;;;;;;4902737;29;19942;-62
2022/07/26 00:25:52;;;;;;;;;;;;;;;;;;4888743;29;19930;-60
2022/07/26 00:28:17;;;;;;;;;;;;;;;;;;4886572;29;20614;-59
2022/07/26 00:30:43;;;;;;;;;;;;;;;;;;4889434;29;19919;-60
2022/07/26 00:33:09;;;;;;;;;;;;;;;;;;4888475;29;19920;-61
2022/07/26 00:35:35;;;;;;;;;;;;;;;;;;4888580;29;21121;-61
2022/07/26 00:38:03;;;;;;;;;;;;;;;;;;4888750;29;20005;-61
2022/07/26 00:40:28;;;;;;;;;;;;;;;;;;4889827;29;19923;-60
2022/07/26 00:42:53;;;;;;;;;;;;;;;;;;4886808;29;20025;-61
2022/07/26 00:45:18;;;;;;;;;;;;;;;;;;4889188;29;19920;-61
2022/07/26 00:47:49;;;;;;;;;;;;;;;;;;4888253;29;19923;-60
2022/07/26 00:50:16;;;;;;;;;;;;;;;;;;4897516;29;19919;-61
2022/07/26 00:52:44;;;;;;;;;;;;;;;;;;4901667;29;20399;-60
2022/07/26 00:55:09;;;;;;;;;;;;;;;;;;4889568;29;20490;-60
2022/07/26 00:57:35;;;;;;;;;;;;;;;;;;4883088;29;19938;-62
2022/07/26 01:00:02;;;;;;;;;;;;;;;;;;4887392;29;20033;-61
2022/07/26 01:02:27;;;;;;;;;;;;;;;;;;4887835;29;19920;-64
2022/07/26 01:04:55;;;;;;;;;;;;;;;;;;4899353;29;20029;-61
2022/07/26 01:07:23;;;;;;;;;;;;;;;;;;4882454;29;20116;-60
2022/07/26 01:09:49;;;;;;;;;;;;;;;;;;4887161;29;20524;-61
2022/07/26 01:12:14;;;;;;;;;;;;;;;;;;4901699;29;20025;-60
2022/07/26 01:14:39;;;;;;;;;;;;;;;;;;4885536;29;20017;-61
2022/07/26 01:17:05;;;;;;;;;;;;;;;;;;4901039;29;19927;-61
2022/07/26 01:19:31;;;;;;;;;;;;;;;;;;4888453;29;19922;-60
2022/07/26 01:21:57;;;;;;;;;;;;;;;;;;4889720;29;19919;-59
2022/07/26 01:24:22;;;;;;;;;;;;;;;;;;4902605;29;19938;-60
2022/07/26 01:26:47;;;;;;;;;;;;;;;;;;4887032;29;19970;-62
2022/07/26 01:29:15;;;;;;;;;;;;;;;;;;4889481;29;19927;-62
2022/07/26 01:31:41;;;;;;;;;;;;;;;;;;4886366;29;19927;-61
2022/07/26 01:34:09;;;;;;;;;;;;;;;;;;4887207;29;19923;-61
2022/07/26 01:36:36;;;;;;;;;;;;;;;;;;4889846;29;20423;-62
2022/07/26 01:39:04;;;;;;;;;;;;;;;;;;4887259;29;19971;-61
2022/07/26 01:41:32;;;;;;;;;;;;;;;;;;4902087;29;19930;-61
2022/07/26 01:44:00;;;;;;;;;;;;;;;;;;4888159;29;19927;-60
2022/07/26 01:46:25;;;;;;;;;;;;;;;;;;4887656;29;21989;-61
2022/07/26 01:48:51;;;;;;;;;;;;;;;;;;4886354;29;19924;-61
2022/07/26 01:51:16;;;;;;;;;;;;;;;;;;4868162;29;19973;-61
2022/07/26 01:53:44;;;;;;;;;;;;;;;;;;4901182;29;19918;-61
2022/07/26 01:56:10;;;;;;;;;;;;;;;;;;4902214;29;19947;-60
2022/07/26 01:58:38;;;;;;;;;;;;;;;;;;4881470;29;19949;-60
2022/07/26 02:01:06;;;;;;;;;;;;;;;;;;4889286;29;20475;-60
2022/07/26 02:03:31;;;;;;;;;;;;;;;;;;4888939;29;19971;-61
2022/07/26 02:05:59;;;;;;;;;;;;;;;;;;4886352;29;19923;-60
2022/07/26 02:08:24;;;;;;;;;;;;;;;;;;4888437;29;21303;-60
2022/07/26 02:10:59;;;;;;;;;;;;;;;;;;4881765;29;20639;-60
2022/07/26 02:13:24;;;;;;;;;;;;;;;;;;4902784;29;19999;-61
2022/07/26 02:15:52;;;;;;;;;;;;;;;;;;4902931;29;19923;-61
2022/07/26 02:18:17;;;;;;;;;;;;;;;;;;4898558;29;19927;-61
2022/07/26 02:20:42;;;;;;;;;;;;;;;;;;4882962;29;20841;-61
2022/07/26 02:23:10;;;;;;;;;;;;;;;;;;4898988;29;19954;-67
2022/07/26 02:25:35;;;;;;;;;;;;;;;;;;4873343;29;19970;-65
2022/07/26 02:28:01;;;;;;;;;;;;;;;;;;4891335;29;19923;-65
2022/07/26 02:30:26;;;;;;;;;;;;;;;;;;4892113;29;21145;-58
2022/07/26 02:32:51;;;;;;;;;;;;;;;;;;4892679;29;19923;-58
2022/07/26 02:35:17;;;;;;;;;;;;;;;;;;4905180;29;20902;-59
2022/07/26 02:37:42;;;;;;;;;;;;;;;;;;4907547;29;19931;-58
2022/07/26 02:40:10;;;;;;;;;;;;;;;;;;4891149;29;19967;-59
2022/07/26 02:42:35;;;;;;;;;;;;;;;;;;4891429;29;19935;-58
2022/07/26 02:45:05;;;;;;;;;;;;;;;;;;4906253;29;19919;-58
2022/07/26 02:47:31;;;;;;;;;;;;;;;;;;4893048;29;19946;-58
2022/07/26 02:50:02;;;;;;;;;;;;;;;;;;4902880;29;20008;-57
2022/07/26 02:52:28;;;;;;;;;;;;;;;;;;4905130;29;19927;-59
2022/07/26 02:54:53;;;;;;;;;;;;;;;;;;4889620;29;19923;-59
2022/07/26 02:57:18;;;;;;;;;;;;;;;;;;4889554;29;19963;-59
2022/07/26 02:59:47;;;;;;;;;;;;;;;;;;4890625;29;19951;-59
2022/07/26 03:02:14;;;;;;;;;;;;;;;;;;4907363;29;19993;-59
2022/07/26 03:04:42;;;;;;;;;;;;;;;;;;4891173;29;19923;-58
2022/07/26 03:07:08;;;;;;;;;;;;;;;;;;4891147;29;19931;-59
2022/07/26 03:09:33;;;;;;;;;;;;;;;;;;4889466;29;20387;-59
2022/07/26 03:11:59;;;;;;;;;;;;;;;;;;4891300;29;21379;-58
2022/07/26 03:14:27;;;;;;;;;;;;;;;;;;4890603;29;20659;-59
2022/07/26 03:16:53;;;;;;;;;;;;;;;;;;4891164;29;20061;-58
2022/07/26 03:19:18;;;;;;;;;;;;;;;;;;4890087;29;20152;-59
2022/07/26 03:21:43;;;;;;;;;;;;;;;;;;4891393;29;19982;-59
2022/07/26 03:24:09;;;;;;;;;;;;;;;;;;4904149;29;20439;-59
2022/07/26 03:26:34;;;;;;;;;;;;;;;;;;4893625;29;19978;-59
2022/07/26 03:29:00;;;;;;;;;;;;;;;;;;4889419;29;19969;-58
2022/07/26 03:31:25;;;;;;;;;;;;;;;;;;4890660;29;19923;-58
2022/07/26 03:33:55;;;;;;;;;;;;;;;;;;4890840;29;21853;-58
2022/07/26 03:36:21;;;;;;;;;;;;;;;;;;4883639;29;19970;-58
2022/07/26 03:38:48;;;;;;;;;;;;;;;;;;4890203;29;21796;-58
2022/07/26 03:41:14;;;;;;;;;;;;;;;;;;4888534;29;20584;-58
2022/07/26 03:43:43;;;;;;;;;;;;;;;;;;4887748;29;21024;-58
2022/07/26 03:46:09;;;;;;;;;;;;;;;;;;4905806;29;19923;-58
2022/07/26 03:48:41;;;;;;;;;;;;;;;;;;4889714;29;19926;-58
2022/07/26 03:51:12;;;;;;;;;;;;;;;;;;4904902;29;20006;-58
2022/07/26 03:53:43;;;;;;;;;;;;;;;;;;4888132;29;20430;-58
2022/07/26 03:58:52;;;;;;;;;;;;;;;;;;4889903;29;19978;-58
2022/07/26 04:01:17;;;;;;;;;;;;;;;;;;4869795;29;19927;-58
2022/07/26 04:03:45;;;;;;;;;;;;;;;;;;4889238;29;19923;-59
2022/07/26 04:06:13;;;;;;;;;;;;;;;;;;4871012;29;19923;-58
2022/07/26 04:08:39;;;;;;;;;;;;;;;;;;4904477;29;19923;-58
2022/07/26 04:11:04;;;;;;;;;;;;;;;;;;4884340;29;20340;-58
2022/07/26 04:13:30;;;;;;;;;;;;;;;;;;4888965;29;19955;-58
2022/07/26 04:15:57;;;;;;;;;;;;;;;;;;4889617;29;21850;-58
2022/07/26 04:18:22;;;;;;;;;;;;;;;;;;4889818;29;19930;-58
2022/07/26 04:20:50;;;;;;;;;;;;;;;;;;4888938;29;20894;-57
2022/07/26 04:23:17;;;;;;;;;;;;;;;;;;4890086;29;19985;-58
2022/07/26 04:25:43;;;;;;;;;;;;;;;;;;4888518;29;20005;-58
2022/07/26 04:28:08;;;;;;;;;;;;;;;;;;4887256;29;20384;-57
2022/07/26 04:30:34;;;;;;;;;;;;;;;;;;4889356;29;19923;-57
2022/07/26 04:32:59;;;;;;;;;;;;;;;;;;4889994;29;19930;-58
2022/07/26 04:35:24;;;;;;;;;;;;;;;;;;4882744;29;19934;-59
2022/07/26 04:37:50;;;;;;;;;;;;;;;;;;4890454;29;19942;-58
2022/07/26 04:40:15;;;;;;;;;;;;;;;;;;4888541;29;19923;-58
2022/07/26 04:42:41;;;;;;;;;;;;;;;;;;4889603;29;20201;-59
2022/07/26 04:45:09;;;;;;;;;;;;;;;;;;4898423;29;19919;-59
2022/07/26 04:47:35;;;;;;;;;;;;;;;;;;4889513;29;19930;-58
2022/07/26 04:50:01;;;;;;;;;;;;;;;;;;4889926;29;19919;-60
2022/07/26 04:52:28;;;;;;;;;;;;;;;;;;4886041;29;20009;-60
2022/07/26 04:54:56;;;;;;;;;;;;;;;;;;4888449;29;19957;-60
2022/07/26 04:57:22;;;;;;;;;;;;;;;;;;4887047;29;19930;-59
2022/07/26 04:59:47;;;;;;;;;;;;;;;;;;4890415;29;20006;-59
2022/07/26 05:02:15;;;;;;;;;;;;;;;;;;4888111;29;20522;-60
2022/07/26 05:04:43;;;;;;;;;;;;;;;;;;4889489;29;19930;-59
2022/07/26 05:07:09;;;;;;;;;;;;;;;;;;4888518;29;19931;-60
2022/07/26 05:09:36;;;;;;;;;;;;;;;;;;4886984;29;19923;-60
2022/07/26 05:12:02;;;;;;;;;;;;;;;;;;4888423;29;19934;-60
2022/07/26 05:14:30;;;;;;;;;;;;;;;;;;4882199;29;20572;-60
2022/07/26 05:16:59;;;;;;;;;;;;;;;;;;4888641;29;19970;-59
2022/07/26 05:19:25;;;;;;;;;;;;;;;;;;4881644;29;19931;-59
2022/07/26 05:21:50;;;;;;;;;;;;;;;;;;4883771;29;19930;-59
2022/07/26 05:24:18;;;;;;;;;;;;;;;;;;4887013;29;19927;-59
2022/07/26 05:26:44;;;;;;;;;;;;;;;;;;4881686;29;19927;-59
2022/07/26 05:29:12;;;;;;;;;;;;;;;;;;4902235;29;19927;-59
2022/07/26 05:31:37;;;;;;;;;;;;;;;;;;4888392;29;19920;-59
2022/07/26 05:34:06;;;;;;;;;;;;;;;;;;4888782;29;19929;-58
2022/07/26 05:36:34;;;;;;;;;;;;;;;;;;4887916;29;20447;-60
2022/07/26 05:38:59;;;;;;;;;;;;;;;;;;4881370;29;19935;-60
2022/07/26 05:41:24;;;;;;;;;;;;;;;;;;4882568;29;19927;-60
2022/07/26 05:43:52;;;;;;;;;;;;;;;;;;4888330;29;19923;-60
2022/07/26 05:46:20;;;;;;;;;;;;;;;;;;4889101;29;19957;-60
2022/07/26 05:48:46;;;;;;;;;;;;;;;;;;4889350;29;19923;-60
2022/07/26 05:51:11;;;;;;;;;;;;;;;;;;4888006;29;20388;-60
2022/07/26 05:53:36;;;;;;;;;;;;;;;;;;4888065;29;19962;-60
2022/07/26 05:56:02;;;;;;;;;;;;;;;;;;4885882;29;19919;-60
2022/07/26 05:58:30;;;;;;;;;;;;;;;;;;4889431;29;20371;-60
2022/07/26 06:00:57;;;;;;;;;;;;;;;;;;4893752;29;20597;-60
2022/07/26 06:03:23;;;;;;;;;;;;;;;;;;4891824;29;19923;-61
2022/07/26 06:05:48;;;;;;;;;;;;;;;;;;4891164;29;19919;-61
2022/07/26 06:08:13;;;;;;;;;;;;;;;;;;4886720;29;20252;-60
2022/07/26 06:10:39;;;;;;;;;;;;;;;;;;4890808;29;19926;-60
2022/07/26 06:13:05;;;;;;;;;;;;;;;;;;4907298;29;19923;-60
2022/07/26 06:15:33;;;;;;;;;;;;;;;;;;4891859;29;19966;-60
2022/07/26 06:18:01;;;;;;;;;;;;;;;;;;4892565;29;19923;-61
2022/07/26 06:20:26;;;;;;;;;;;;;;;;;;4892261;29;20379;-62
2022/07/26 06:22:56;;;;;;;;;;;;;;;;;;4892308;29;19923;-61
2022/07/26 06:25:22;;;;;;;;;;;;;;;;;;4890171;29;20033;-60
2022/07/26 06:27:47;;;;;;;;;;;;;;;;;;4892150;29;19923;-61
2022/07/26 06:30:15;;;;;;;;;;;;;;;;;;4886342;29;19931;-61
2022/07/26 06:32:43;;;;;;;;;;;;;;;;;;4892831;29;20355;-61
2022/07/26 06:35:10;;;;;;;;;;;;;;;;;;4906269;29;19978;-60
2022/07/26 06:37:36;;;;;;;;;;;;;;;;;;4892177;29;20424;-60
2022/07/26 06:40:02;;;;;;;;;;;;;;;;;;4890922;29;19927;-61
2022/07/26 06:42:32;;;;;;;;;;;;;;;;;;4890371;29;19924;-61
2022/07/26 06:44:57;;;;;;;;;;;;;;;;;;4891249;29;19989;-61
2022/07/26 06:47:22;;;;;;;;;;;;;;;;;;4892366;29;20442;-62
2022/07/26 06:49:47;;;;;;;;;;;;;;;;;;4891934;29;19935;-61
2022/07/26 06:52:15;;;;;;;;;;;;;;;;;;4886384;29;19934;-63
2022/07/26 06:54:43;;;;;;;;;;;;;;;;;;4891539;29;19923;-62
2022/07/26 06:57:08;;;;;;;;;;;;;;;;;;4890347;29;20019;-63
2022/07/26 06:59:34;;;;;;;;;;;;;;;;;;4903937;29;20022;-64
2022/07/26 07:02:00;;;;;;;;;;;;;;;;;;4889969;29;20065;-63
2022/07/26 07:04:28;;;;;;;;;;;;;;;;;;4904958;29;19923;-61
2022/07/26 07:06:53;;;;;;;;;;;;;;;;;;4891953;29;19930;-62
2022/07/26 07:09:20;;;;;;;;;;;;;;;;;;4888101;29;19920;-63
2022/07/26 07:11:48;;;;;;;;;;;;;;;;;;4884988;29;19929;-62
2022/07/26 07:14:13;;;;;;;;;;;;;;;;;;4891713;29;19934;-64
2022/07/26 07:16:38;;;;;;;;;;;;;;;;;;4889274;29;19923;-63
2022/07/26 07:19:04;;;;;;;;;;;;;;;;;;4890643;29;19927;-63
2022/07/26 07:21:32;;;;;;;;;;;;;;;;;;4888236;29;20565;-62
2022/07/26 07:23:57;;;;;;;;;;;;;;;;;;4891884;29;19953;-63
2022/07/26 07:26:24;;;;;;;;;;;;;;;;;;4904305;29;20363;-63
2022/07/26 07:28:51;;;;;;;;;;;;;;;;;;4892098;29;19926;-62
2022/07/26 07:31:19;;;;;;;;;;;;;;;;;;4904835;29;19923;-65
2022/07/26 07:33:44;;;;;;;;;;;;;;;;;;4890246;29;19986;-66
2022/07/26 07:36:09;;;;;;;;;;;;;;;;;;4891475;29;19938;-63
2022/07/26 07:38:34;;;;;;;;;;;;;;;;;;4890680;29;20677;-64
2022/07/26 07:41:00;;;;;;;;;;;;;;;;;;4904464;29;19919;-64
2022/07/26 07:43:26;;;;;;;;;;;;;;;;;;4901407;29;21228;-64
2022/07/26 07:45:53;;;;;;;;;;;;;;;;;;4904127;29;20291;-62
2022/07/26 07:48:21;;;;;;;;;;;;;;;;;;4870534;29;19965;-62
2022/07/26 07:50:49;;;;;;;;;;;;;;;;;;4899816;29;19994;-64
2022/07/26 07:53:14;;;;;;;;;;;;;;;;;;4903443;29;20471;-64
2022/07/26 07:55:39;;;;;;;;;;;;;;;;;;4890108;29;19934;-62
2022/07/26 07:58:08;;;;;;;;;;;;;;;;;;4886779;29;19927;-63
2022/07/26 08:00:33;;;;;;;;;;;;;;;;;;4891935;29;19923;-63
2022/07/26 08:02:58;;;;;;;;;;;;;;;;;;4891513;29;19930;-63
2022/07/26 08:05:23;;;;;;;;;;;;;;;;;;4886709;29;19923;-63
2022/07/26 08:07:49;;;;;;;;;;;;;;;;;;4890227;29;20722;-65
2022/07/26 08:10:17;;;;;;;;;;;;;;;;;;4903614;29;20010;-64
2022/07/26 08:12:43;;;;;;;;;;;;;;;;;;4903552;29;20417;-64
2022/07/26 08:15:10;;;;;;;;;;;;;;;;;;4903701;29;19994;-65
2022/07/26 08:17:38;;;;;;;;;;;;;;;;;;4889059;29;20564;-66
2022/07/26 08:20:04;;;;;;;;;;;;;;;;;;4883291;29;19919;-64
2022/07/26 08:22:30;;;;;;;;;;;;;;;;;;4883645;29;19927;-62
2022/07/26 08:24:55;;;;;;;;;;;;;;;;;;4888944;29;19927;-62
2022/07/26 08:27:21;;;;;;;;;;;;;;;;;;4884568;29;20054;-65
2022/07/26 08:29:47;;;;;;;;;;;;;;;;;;4902974;29;19954;-64
2022/07/26 08:32:12;;;;;;;;;;;;;;;;;;4903101;29;19970;-63
2022/07/26 08:34:37;;;;;;;;;;;;;;;;;;4889663;29;19975;-64
2022/07/26 08:37:03;;;;;;;;;;;;;;;;;;4888556;29;20019;-64
2022/07/26 08:39:31;;;;;;;;;;;;;;;;;;4902417;29;19967;-63
2022/07/26 08:41:56;;;;;;;;;;;;;;;;;;4890026;29;19926;-64
2022/07/26 08:44:21;;;;;;;;;;;;;;;;;;4886289;29;19922;-65
2022/07/26 08:46:47;;;;;;;;;;;;;;;;;;4888136;29;20294;-65
2022/07/26 08:49:13;;;;;;;;;;;;;;;;;;4869786;29;21198;-62
2022/07/26 08:51:39;;;;;;;;;;;;;;;;;;4889739;29;19931;-62
2022/07/26 08:54:07;;;;;;;;;;;;;;;;;;4888300;29;19923;-64
2022/07/26 08:56:33;;;;;;;;;;;;;;;;;;4888928;29;19929;-66
2022/07/26 08:59:00;;;;;;;;;;;;;;;;;;4901865;29;21868;-65
2022/07/26 09:01:26;;;;;;;;;;;;;;;;;;4888240;29;19924;-66
2022/07/26 09:03:51;;;;;;;;;;;;;;;;;;4889111;29;19923;-65
2022/07/26 09:06:17;;;;;;;;;;;;;;;;;;4887820;29;19923;-65
2022/07/26 09:08:45;;;;;;;;;;;;;;;;;;4887517;29;20565;-65
2022/07/26 09:11:13;;;;;;;;;;;;;;;;;;4888160;29;19930;-65
2022/07/26 09:13:41;;;;;;;;;;;;;;;;;;4887309;29;20034;-66
2022/07/26 09:16:06;;;;;;;;;;;;;;;;;;4890061;29;19994;-66
2022/07/26 09:18:32;;;;;;;;;;;;;;;;;;4902409;29;19934;-67
2022/07/26 09:21:00;;;;;;;;;;;;;;;;;;4888870;29;19992;-62
2022/07/26 09:23:28;;;;;;;;;;;;;;;;;;4882775;29;19949;-66
2022/07/26 09:25:53;;;;;;;;;;;;;;;;;;4890093;29;20368;-66
2022/07/26 09:28:19;;;;;;;;;;;;;;;;;;4889355;29;20108;-67
2022/07/26 09:30:44;;;;;;;;;;;;;;;;;;4887836;29;19923;-66
2022/07/26 09:33:10;;;;;;;;;;;;;;;;;;4889267;29;19915;-68
2022/07/26 09:35:38;;;;;;;;;;;;;;;;;;4884034;29;19974;-67
2022/07/26 09:38:03;;;;;;;;;;;;;;;;;;4902269;29;19931;-66
2022/07/26 09:40:31;;;;;;;;;;;;;;;;;;4888143;29;20925;-67
2022/07/26 09:42:58;;;;;;;;;;;;;;;;;;4902848;29;20065;-66
2022/07/26 09:45:28;;;;;;;;;;;;;;;;;;4889614;29;19919;-67
2022/07/26 09:47:54;;;;;;;;;;;;;;;;;;4904307;29;19923;-67
2022/07/26 09:50:20;;;;;;;;;;;;;;;;;;4885293;29;19919;-66
2022/07/26 09:52:45;;;;;;;;;;;;;;;;;;4888965;29;19923;-66
2022/07/26 09:55:15;;;;;;;;;;;;;;;;;;4882482;29;20019;-68
2022/07/26 09:57:45;;;;;;;;;;;;;;;;;;4888003;29;19923;-68
2022/07/26 10:00:11;;;;;;;;;;;;;;;;;;4901018;29;20293;-67
2022/07/26 10:02:41;;;;;;;;;;;;;;;;;;4888002;29;19930;-67
2022/07/26 10:05:06;;;;;;;;;;;;;;;;;;4888027;29;20493;-67
2022/07/26 10:07:34;;;;;;;;;;;;;;;;;;4886576;29;19919;-66
2022/07/26 10:10:03;;;;;;;;;;;;;;;;;;4881538;29;20007;-65
2022/07/26 10:12:28;;;;;;;;;;;;;;;;;;4886041;29;19958;-67
2022/07/26 10:14:56;;;;;;;;;;;;;;;;;;4881735;29;20050;-67
2022/07/26 10:17:24;;;;;;;;;;;;;;;;;;4888818;29;19930;-67
2022/07/26 10:19:50;;;;;;;;;;;;;;;;;;4886189;29;19931;-67
2022/07/26 10:22:17;;;;;;;;;;;;;;;;;;4887547;29;19931;-64
2022/07/26 10:24:47;;;;;;;;;;;;;;;;;;4887257;29;19995;-66
2022/07/26 10:27:12;;;;;;;;;;;;;;;;;;4888586;29;20455;-65
2022/07/26 10:29:38;;;;;;;;;;;;;;;;;;4887298;29;19924;-67
2022/07/26 10:32:08;;;;;;;;;;;;;;;;;;4901162;29;19986;-66
2022/07/26 10:34:33;;;;;;;;;;;;;;;;;;4886135;29;20343;-67
2022/07/26 10:36:59;;;;;;;;;;;;;;;;;;4889724;29;19929;-67
2022/07/26 10:39:25;;;;;;;;;;;;;;;;;;4887587;29;20929;-68
2022/07/26 10:41:52;;;;;;;;;;;;;;;;;;4887695;29;19919;-70
2022/07/26 10:44:20;;;;;;;;;;;;;;;;;;4902630;29;19946;-69
2022/07/26 10:46:48;;;;;;;;;;;;;;;;;;4885322;29;20559;-68
2022/07/26 10:49:16;;;;;;;;;;;;;;;;;;4886188;29;19923;-66
2022/07/26 10:51:41;;;;;;;;;;;;;;;;;;4890789;29;19934;-63
2022/07/26 10:54:07;;;;;;;;;;;;;;;;;;4890764;29;19974;-67
2022/07/26 10:56:32;;;;;;;;;;;;;;;;;;4884726;29;19927;-68
2022/07/26 10:59:00;;;;;;;;;;;;;;;;;;4889570;29;19931;-70
2022/07/26 11:01:27;;;;;;;;;;;;;;;;;;4884808;29;19919;-66
2022/07/26 11:03:53;;;;;;;;;;;;;;;;;;4905424;29;19930;-65
2022/07/26 11:06:18;;;;;;;;;;;;;;;;;;4892441;29;19926;-68
2022/07/26 11:08:44;;;;;;;;;;;;;;;;;;4891995;29;19967;-67
2022/07/26 11:11:10;;;;;;;;;;;;;;;;;;4890675;29;19974;-67
2022/07/26 11:13:36;;;;;;;;;;;;;;;;;;4885635;29;21924;-68
2022/07/26 11:16:01;;;;;;;;;;;;;;;;;;4884144;29;19923;-67
2022/07/26 11:18:29;;;;;;;;;;;;;;;;;;4884556;29;19938;-67
2022/07/26 11:20:55;;;;;;;;;;;;;;;;;;4889116;29;19929;-66
2022/07/26 11:23:20;;;;;;;;;;;;;;;;;;4876755;29;19926;-68
2022/07/26 11:25:48;;;;;;;;;;;;;;;;;;4891702;29;19941;-64
2022/07/26 11:28:16;;;;;;;;;;;;;;;;;;4890737;29;20422;-65
2022/07/26 11:30:44;;;;;;;;;;;;;;;;;;4890864;29;19998;-65
2022/07/26 11:33:09;;;;;;;;;;;;;;;;;;4890547;29;19937;-66
2022/07/26 11:35:34;;;;;;;;;;;;;;;;;;4905229;29;20014;-68
2022/07/26 11:38:00;;;;;;;;;;;;;;;;;;4885123;29;20150;-68
2022/07/26 11:40:30;;;;;;;;;;;;;;;;;;4887923;29;19957;-65
2022/07/26 11:42:58;;;;;;;;;;;;;;;;;;4899721;29;20305;-62
2022/07/26 11:45:28;;;;;;;;;;;;;;;;;;4903019;29;19926;-64
2022/07/26 11:47:56;;;;;;;;;;;;;;;;;;4888240;29;19919;-65
2022/07/26 11:50:21;;;;;;;;;;;;;;;;;;4890551;29;20548;-65
2022/07/26 11:52:47;;;;;;;;;;;;;;;;;;4889828;29;19927;-65
2022/07/26 11:55:17;;;;;;;;;;;;;;;;;;4890942;29;19919;-66
2022/07/26 11:57:45;;;;;;;;;;;;;;;;;;4890294;29;20010;-66
2022/07/26 12:00:10;;;;;;;;;;;;;;;;;;4903232;29;20417;-65
2022/07/26 12:02:36;;;;;;;;;;;;;;;;;;4883459;29;19920;-64
2022/07/26 12:05:01;;;;;;;;;;;;;;;;;;4889299;29;20003;-66
2022/07/26 12:07:31;;;;;;;;;;;;;;;;;;4892348;29;19928;-66
2022/07/26 12:10:00;;;;;;;;;;;;;;;;;;4883465;29;19946;-65
2022/07/26 12:12:27;;;;;;;;;;;;;;;;;;4893190;29;20179;-65
2022/07/26 12:14:53;;;;;;;;;;;;;;;;;;4894121;29;19926;-67
2022/07/26 12:17:18;;;;;;;;;;;;;;;;;;4887499;29;19923;-67
2022/07/26 12:19:46;;;;;;;;;;;;;;;;;;4890021;29;19927;-67
2022/07/26 12:22:11;;;;;;;;;;;;;;;;;;4903533;29;20319;-67
2022/07/26 12:24:36;;;;;;;;;;;;;;;;;;4889357;29;19951;-69
2022/07/26 12:27:02;;;;;;;;;;;;;;;;;;4870783;29;19965;-65
2022/07/26 12:29:31;;;;;;;;;;;;;;;;;;4889133;29;19927;-66
2022/07/26 12:31:59;;;;;;;;;;;;;;;;;;4883766;29;19962;-65
2022/07/26 12:34:27;;;;;;;;;;;;;;;;;;4882311;29;19923;-65
2022/07/26 12:37:05;;;;;;;;;;;;;;;;;;4902510;29;19919;-66
2022/07/26 12:39:30;;;;;;;;;;;;;;;;;;4886879;29;19923;-64
2022/07/26 12:41:56;;;;;;;;;;;;;;;;;;4889661;29;19927;-65
2022/07/26 12:44:22;;;;;;;;;;;;;;;;;;4882614;29;19919;-66
2022/07/26 12:46:48;;;;;;;;;;;;;;;;;;4887871;29;19966;-65
2022/07/26 12:49:16;;;;;;;;;;;;;;;;;;4890183;29;20287;-67
2022/07/26 12:51:42;;;;;;;;;;;;;;;;;;4888827;29;19923;-63
2022/07/26 12:54:07;;;;;;;;;;;;;;;;;;4888831;29;19919;-64
2022/07/26 12:56:32;;;;;;;;;;;;;;;;;;4887812;29;20863;-66
2022/07/26 12:59:01;;;;;;;;;;;;;;;;;;4883563;29;19987;-67
2022/07/26 13:01:29;;;;;;;;;;;;;;;;;;4888758;29;19926;-65
2022/07/26 13:03:54;;;;;;;;;;;;;;;;;;4886283;29;20295;-69
2022/07/26 13:06:19;;;;;;;;;;;;;;;;;;4887283;29;19923;-63
2022/07/26 13:08:45;;;;;;;;;;;;;;;;;;4888813;29;20873;-64
2022/07/26 13:11:12;;;;;;;;;;;;;;;;;;4888779;29;19969;-63
2022/07/26 13:13:37;;;;;;;;;;;;;;;;;;4886609;29;20010;-64
2022/07/26 13:16:03;;;;;;;;;;;;;;;;;;4890217;29;19962;-66
2022/07/26 13:18:28;;;;;;;;;;;;;;;;;;4880736;29;20071;-65
2022/07/26 13:20:56;;;;;;;;;;;;;;;;;;4887785;29;20110;-66
2022/07/26 13:23:23;;;;;;;;;;;;;;;;;;4887849;29;19938;-66
2022/07/26 13:25:51;;;;;;;;;;;;;;;;;;4887600;29;19919;-66
2022/07/26 13:28:16;;;;;;;;;;;;;;;;;;4885248;29;19927;-66
2022/07/26 13:30:42;;;;;;;;;;;;;;;;;;4902419;29;19951;-66
2022/07/26 13:33:10;;;;;;;;;;;;;;;;;;4886678;29;19919;-66
2022/07/26 13:35:38;;;;;;;;;;;;;;;;;;4901997;29;19930;-69
2022/07/26 13:38:03;;;;;;;;;;;;;;;;;;4886293;29;19945;-67
2022/07/26 13:40:29;;;;;;;;;;;;;;;;;;4886055;29;20466;-68
2022/07/26 13:42:54;;;;;;;;;;;;;;;;;;4889707;29;19923;-69
2022/07/26 13:45:20;;;;;;;;;;;;;;;;;;4903136;29;19927;-66
2022/07/26 13:47:45;;;;;;;;;;;;;;;;;;4902644;29;19946;-67
2022/07/26 13:50:10;;;;;;;;;;;;;;;;;;4868955;29;19920;-67
2022/07/26 13:52:36;;;;;;;;;;;;;;;;;;4889634;29;19954;-65
2022/07/26 13:55:04;;;;;;;;;;;;;;;;;;4889415;29;20027;-65
2022/07/26 13:57:29;;;;;;;;;;;;;;;;;;4886120;29;19924;-66
2022/07/26 13:59:57;;;;;;;;;;;;;;;;;;4882085;29;20384;-69
2022/07/26 14:02:25;;;;;;;;;;;;;;;;;;4888357;29;19923;-65
2022/07/26 14:04:50;;;;;;;;;;;;;;;;;;4886657;29;19938;-66
2022/07/26 14:07:16;;;;;;;;;;;;;;;;;;4901396;29;19926;-66
2022/07/26 14:09:41;;;;;;;;;;;;;;;;;;4903657;29;19969;-67
2022/07/26 14:12:09;;;;;;;;;;;;;;;;;;4888416;29;20583;-67
2022/07/26 14:14:37;;;;;;;;;;;;;;;;;;4867397;29;19923;-65
2022/07/26 14:17:02;;;;;;;;;;;;;;;;;;4904051;29;20303;-65
2022/07/26 14:19:28;;;;;;;;;;;;;;;;;;4889508;29;19969;-66
2022/07/26 14:21:53;;;;;;;;;;;;;;;;;;4891621;29;19929;-66
2022/07/26 14:24:19;;;;;;;;;;;;;;;;;;4890122;29;20042;-66
2022/07/26 14:26:49;;;;;;;;;;;;;;;;;;4889281;29;20434;-63
2022/07/26 14:29:15;;;;;;;;;;;;;;;;;;4891580;29;19923;-66
2022/07/26 14:31:40;;;;;;;;;;;;;;;;;;4893239;29;20122;-69
2022/07/26 14:34:05;;;;;;;;;;;;;;;;;;4872356;29;19934;-67
2022/07/26 14:36:33;;;;;;;;;;;;;;;;;;4889831;29;20666;-67
2022/07/26 14:38:59;;;;;;;;;;;;;;;;;;4890763;29;19923;-70
2022/07/26 14:41:24;;;;;;;;;;;;;;;;;;4904418;29;20041;-67
2022/07/26 14:43:49;;;;;;;;;;;;;;;;;;4891562;29;20319;-67
2022/07/26 14:46:15;;;;;;;;;;;;;;;;;;4885381;29;22201;-67
2022/07/26 14:48:40;;;;;;;;;;;;;;;;;;4874663;29;19919;-65
2022/07/26 14:51:08;;;;;;;;;;;;;;;;;;4891761;29;19925;-65
2022/07/26 14:53:33;;;;;;;;;;;;;;;;;;4906221;29;20295;-72
2022/07/26 14:55:59;;;;;;;;;;;;;;;;;;4891776;29;20002;-69
2022/07/26 14:58:24;;;;;;;;;;;;;;;;;;4889919;29;19977;-67
2022/07/26 15:00:51;;;;;;;;;;;;;;;;;;4890063;29;20265;-68
2022/07/26 15:03:19;;;;;;;;;;;;;;;;;;4888747;29;20395;-67
2022/07/26 15:05:44;;;;;;;;;;;;;;;;;;4890069;29;19947;-67
2022/07/26 15:08:09;;;;;;;;;;;;;;;;;;4890188;29;21764;-72
2022/07/26 15:10:35;;;;;;;;;;;;;;;;;;4900232;29;20025;-70
2022/07/26 15:13:00;;;;;;;;;;;;;;;;;;4889746;29;20295;-71
2022/07/26 15:15:26;;;;;;;;;;;;;;;;;;4891382;29;19927;-68
2022/07/26 15:17:51;;;;;;;;;;;;;;;;;;4895005;29;19919;-71
2022/07/26 15:20:16;;;;;;;;;;;;;;;;;;4885705;29;19924;-69
2022/07/26 15:22:42;;;;;;;;;;;;;;;;;;4891514;29;19934;-72
2022/07/26 15:25:07;;;;;;;;;;;;;;;;;;4869980;29;19934;-71
2022/07/26 15:27:32;;;;;;;;;;;;;;;;;;4890930;29;19991;-73
2022/07/26 15:29:57;;;;;;;;;;;;;;;;;;4890458;29;19923;-73
2022/07/26 15:32:26;;;;;;;;;;;;;;;;;;4888878;29;19930;-73
2022/07/26 15:34:51;;;;;;;;;;;;;;;;;;4890469;29;19950;-74
2022/07/26 15:37:17;;;;;;;;;;;;;;;;;;4905293;29;21807;-74
2022/07/26 15:39:43;;;;;;;;;;;;;;;;;;4903726;29;20042;-71
2022/07/26 15:42:08;;;;;;;;;;;;;;;;;;4874127;29;19973;-71
2022/07/26 15:44:33;;;;;;;;;;;;;;;;;;4885605;29;19958;-69
2022/07/26 15:46:59;;;;;;;;;;;;;;;;;;4883062;29;19967;-70
2022/07/26 15:49:24;;;;;;;;;;;;;;;;;;4903652;29;19967;-71
2022/07/26 15:51:50;;;;;;;;;;;;;;;;;;4890138;29;20571;-67
2022/07/26 15:54:15;;;;;;;;;;;;;;;;;;4889072;29;20041;-67
2022/07/26 15:56:41;;;;;;;;;;;;;;;;;;4903964;29;19924;-69
2022/07/26 15:59:07;;;;;;;;;;;;;;;;;;4887790;29;19934;-68
2022/07/26 16:01:32;;;;;;;;;;;;;;;;;;4904813;29;20010;-71
2022/07/26 16:03:58;;;;;;;;;;;;;;;;;;4888070;29;19945;-67
2022/07/26 16:06:23;;;;;;;;;;;;;;;;;;4881124;29;19927;-70
2022/07/26 16:08:48;;;;;;;;;;;;;;;;;;4881797;29;20302;-70
2022/07/26 16:11:14;;;;;;;;;;;;;;;;;;4903422;29;19919;-70
2022/07/26 16:13:39;;;;;;;;;;;;;;;;;;4882798;29;19970;-69
2022/07/26 16:16:07;;;;;;;;;;;;;;;;;;4890617;29;20656;-68
2022/07/26 16:18:33;;;;;;;;;;;;;;;;;;4883568;29;20720;-66
2022/07/26 16:20:58;;;;;;;;;;;;;;;;;;4898635;29;19919;-69
2022/07/26 16:23:23;;;;;;;;;;;;;;;;;;4887812;29;19990;-65
2022/07/26 16:25:49;;;;;;;;;;;;;;;;;;4890128;29;19923;-67
2022/07/26 16:28:15;;;;;;;;;;;;;;;;;;4886869;29;20940;-66
2022/07/26 16:30:40;;;;;;;;;;;;;;;;;;4888076;29;19933;-67
2022/07/26 16:33:06;;;;;;;;;;;;;;;;;;4889346;29;19927;-68
2022/07/26 16:35:31;;;;;;;;;;;;;;;;;;4904454;29;19926;-69
2022/07/26 16:37:58;;;;;;;;;;;;;;;;;;4888966;29;19919;-67
2022/07/26 16:40:26;;;;;;;;;;;;;;;;;;4887438;29;19930;-67
2022/07/26 16:42:54;;;;;;;;;;;;;;;;;;4889730;29;19973;-65